createdAt,value
2023-01-30T00:01:00.235Z,14.40
2023-01-30T00:03:27.490Z,13.75
2023-01-30T00:05:54.356Z,14.23
2023-01-30T00:08:21.539Z,14.90
2023-01-30T00:10:49.315Z,13.75
2023-01-30T00:13:16.808Z,14.02
2023-01-30T00:15:44.017Z,14.25
2023-01-30T00:18:10.876Z,14.18
2023-01-30T00:20:37.716Z,14.05
2023-01-30T00:23:05.042Z,14.50
2023-01-30T00:25:31.973Z,14.40
2023-01-30T00:28:01.007Z,14.07
2023-01-30T00:30:28.412Z,14.40
2023-01-30T00:32:56.610Z,13.65
2023-01-30T00:35:28.325Z,13.52
2023-01-30T00:37:59.454Z,13.77
2023-01-30T00:40:28.373Z,14.55
2023-01-30T00:43:14.080Z,12.65
2023-01-30T00:46:02.872Z,13.25
2023-01-30T00:48:29.732Z,14.38
2023-01-30T00:50:59.441Z,13.70
2023-01-30T00:53:26.278Z,14.00
2023-01-30T00:55:53.932Z,13.48
2023-01-30T00:58:21.337Z,13.13
2023-01-30T01:00:49.126Z,13.23
2023-01-30T01:03:16.039Z,12.70
2023-01-30T01:05:43.481Z,13.63
2023-01-30T01:08:11.203Z,12.98
2023-01-30T01:10:38.391Z,12.73
2023-01-30T01:13:06.885Z,12.48
2023-01-30T01:15:34.008Z,13.15
2023-01-30T01:18:00.773Z,11.75
2023-01-30T01:20:27.612Z,13.05
2023-01-30T01:22:56.035Z,12.88
2023-01-30T01:25:24.542Z,13.15
2023-01-30T01:27:51.649Z,13.23
2023-01-30T01:30:18.568Z,12.75
2023-01-30T01:32:45.333Z,12.25
2023-01-30T01:35:12.382Z,12.70
2023-01-30T01:37:39.150Z,14.10
2023-01-30T01:40:25.698Z,12.90
2023-01-30T01:42:52.516Z,13.27
2023-01-30T01:45:23.129Z,13.20
2023-01-30T01:47:59.017Z,12.70
2023-01-30T01:50:32.393Z,13.48
2023-01-30T01:53:01.893Z,13.15
2023-01-30T01:55:30.203Z,12.30
2023-01-30T01:58:10.394Z,14.07
2023-01-30T02:00:37.131Z,13.35
2023-01-30T02:03:07.829Z,13.27
2023-01-30T02:05:38.297Z,13.55
2023-01-30T02:08:16.909Z,13.52
2023-01-30T02:11:07.265Z,12.43
2023-01-30T02:13:34.209Z,12.57
2023-01-30T02:16:04.353Z,12.10
2023-01-30T02:21:23.470Z,13.38
2023-01-30T02:24:17.818Z,13.40
2023-01-30T02:26:59.799Z,12.43
2023-01-30T02:30:06.808Z,12.48
2023-01-30T02:32:49.589Z,12.40
2023-01-30T02:35:23.144Z,12.98
2023-01-30T02:38:00.970Z,12.43
2023-01-30T02:40:33.967Z,12.30
2023-01-30T02:43:20.195Z,12.48
2023-01-30T02:46:06.550Z,13.32
2023-01-30T02:48:41.865Z,12.50
2023-01-30T02:51:36.658Z,12.52
2023-01-30T02:54:06.923Z,13.43
2023-01-30T02:56:52.531Z,12.32
2023-01-30T02:59:27.942Z,11.48
2023-01-30T03:02:25.368Z,11.90
2023-01-30T03:04:55.430Z,10.65
2023-01-30T03:07:59.578Z,10.93
2023-01-30T03:10:53.929Z,11.68
2023-01-30T03:13:29.268Z,11.63
2023-01-30T03:16:03.503Z,11.88
2023-01-30T03:18:31.449Z,10.85
2023-01-30T03:21:05.260Z,10.98
2023-01-30T03:23:32.092Z,11.88
2023-01-30T03:25:59.741Z,11.45
2023-01-30T03:28:27.912Z,12.40
2023-01-30T03:30:54.842Z,12.05
2023-01-30T03:33:21.784Z,10.98
2023-01-30T03:35:49.796Z,11.20
2023-01-30T03:38:18.185Z,11.82
2023-01-30T03:40:45.153Z,13.02
2023-01-30T03:43:11.901Z,10.57
2023-01-30T03:45:40.344Z,10.68
2023-01-30T03:48:07.916Z,12.05
2023-01-30T03:50:34.964Z,11.30
2023-01-30T03:53:02.263Z,10.75
2023-01-30T03:55:29.280Z,10.63
2023-01-30T03:57:57.472Z,11.57
2023-01-30T04:00:24.280Z,10.80
2023-01-30T04:02:51.402Z,11.15
2023-01-30T04:05:19.088Z,11.38
2023-01-30T04:07:45.953Z,11.15
2023-01-30T04:10:15.340Z,10.57
2023-01-30T04:12:43.001Z,11.82
2023-01-30T04:15:10.720Z,11.02
2023-01-30T04:17:37.759Z,10.95
2023-01-30T04:20:04.953Z,11.20
2023-01-30T04:22:32.836Z,10.57
2023-01-30T04:24:59.622Z,11.07
2023-01-30T04:27:26.379Z,10.80
2023-01-30T04:29:53.617Z,11.88
2023-01-30T04:32:20.361Z,11.02
2023-01-30T04:34:47.235Z,11.13
2023-01-30T04:37:13.990Z,11.77
2023-01-30T04:39:40.722Z,11.73
2023-01-30T04:42:07.445Z,10.60
2023-01-30T04:44:34.206Z,11.98
2023-01-30T04:47:01.070Z,11.55
2023-01-30T04:49:28.017Z,11.30
2023-01-30T04:51:54.746Z,11.52
2023-01-30T04:54:21.774Z,11.15
2023-01-30T04:56:48.509Z,10.50
2023-01-30T04:59:15.590Z,11.02
2023-01-30T05:01:42.895Z,11.20
2023-01-30T05:04:09.915Z,10.85
2023-01-30T05:06:37.049Z,10.18
2023-01-30T05:09:04.620Z,11.13
2023-01-30T05:11:32.219Z,10.95
2023-01-30T05:13:59.468Z,10.25
2023-01-30T05:16:27.342Z,10.95
2023-01-30T05:18:54.113Z,11.13
2023-01-30T05:21:27.794Z,11.00
2023-01-30T05:23:55.871Z,10.90
2023-01-30T05:26:23.817Z,10.80
2023-01-30T05:28:55.492Z,10.90
2023-01-30T05:31:22.708Z,11.45
2023-01-30T05:33:51.964Z,11.02
2023-01-30T05:36:20.655Z,11.38
2023-01-30T05:38:47.460Z,11.38
2023-01-30T05:41:15.684Z,10.98
2023-01-30T05:43:42.626Z,11.55
2023-01-30T05:46:12.265Z,11.13
2023-01-30T05:48:39.179Z,10.43
2023-01-30T05:51:06.648Z,10.43
2023-01-30T05:53:37.260Z,10.43
2023-01-30T05:56:05.483Z,10.65
2023-01-30T05:58:33.431Z,10.05
2023-01-30T06:01:05.344Z,10.15
2023-01-30T06:03:32.579Z,10.52
2023-01-30T06:06:01.609Z,10.75
2023-01-30T06:08:28.498Z,11.15
2023-01-30T06:10:55.305Z,11.18
2023-01-30T06:13:22.122Z,11.07
2023-01-30T06:15:48.879Z,11.02
2023-01-30T06:18:15.640Z,10.60
2023-01-30T06:20:50.420Z,10.60
2023-01-30T06:23:17.508Z,11.25
2023-01-30T06:25:49.008Z,11.13
2023-01-30T06:28:17.092Z,11.07
2023-01-30T06:30:44.122Z,12.38
2023-01-30T06:33:11.657Z,11.23
2023-01-30T06:35:39.369Z,10.15
2023-01-30T06:38:06.592Z,10.80
2023-01-30T06:40:33.369Z,11.20
2023-01-30T06:43:00.113Z,10.35
2023-01-30T06:45:26.870Z,10.57
2023-01-30T06:47:55.819Z,11.38
2023-01-30T06:50:25.035Z,11.60
2023-01-30T06:52:53.140Z,11.35
2023-01-30T06:55:22.748Z,10.82
2023-01-30T06:57:49.626Z,11.27
2023-01-30T07:00:20.352Z,11.35
2023-01-30T07:02:47.585Z,10.23
2023-01-30T07:05:14.677Z,9.73
2023-01-30T07:07:41.423Z,11.20
2023-01-30T07:10:09.332Z,10.88
2023-01-30T07:12:36.824Z,10.27
2023-01-30T07:15:05.221Z,10.10
2023-01-30T07:17:33.159Z,10.68
2023-01-30T07:20:00.060Z,10.98
2023-01-30T07:22:26.902Z,11.45
2023-01-30T07:24:53.670Z,10.18
2023-01-30T07:27:20.414Z,11.20
2023-01-30T07:29:47.286Z,10.45
2023-01-30T07:32:16.567Z,9.85
2023-01-30T07:34:43.572Z,10.02
2023-01-30T07:37:11.489Z,10.45
2023-01-30T07:39:38.233Z,10.07
2023-01-30T07:42:05.486Z,9.63
2023-01-30T07:44:34.029Z,8.70
2023-01-30T07:47:01.310Z,9.20
2023-01-30T07:49:28.128Z,9.40
2023-01-30T07:51:55.004Z,9.90
2023-01-30T07:54:21.718Z,9.27
2023-01-30T07:56:48.485Z,9.88
2023-01-30T07:59:15.885Z,9.25
2023-01-30T08:01:42.600Z,8.70
2023-01-30T08:04:11.089Z,9.52
2023-01-30T08:06:39.838Z,9.02
2023-01-30T08:09:07.475Z,8.27
2023-01-30T08:11:35.318Z,8.98
2023-01-30T08:14:02.556Z,9.00
2023-01-30T08:16:32.377Z,9.10
2023-01-30T08:18:59.356Z,8.30
2023-01-30T08:21:26.256Z,8.48
2023-01-30T08:23:53.008Z,8.65
2023-01-30T08:26:21.001Z,9.02
2023-01-30T08:28:48.082Z,9.00
2023-01-30T08:31:16.371Z,8.15
2023-01-30T08:33:44.496Z,8.40
2023-01-30T08:36:11.268Z,9.30
2023-01-30T08:38:38.051Z,8.25
2023-01-30T08:41:07.503Z,8.48
2023-01-30T08:43:35.189Z,7.80
2023-01-30T08:46:02.547Z,7.35
2023-01-30T08:48:36.711Z,7.47
2023-01-30T08:51:07.002Z,8.07
2023-01-30T08:53:33.759Z,8.13
2023-01-30T08:56:00.500Z,7.40
2023-01-30T08:58:27.239Z,7.72
2023-01-30T09:00:54.013Z,8.00
2023-01-30T09:03:20.743Z,6.90
2023-01-30T09:05:47.528Z,7.32
2023-01-30T09:08:14.272Z,7.20
2023-01-30T09:10:41.082Z,7.03
2023-01-30T09:13:09.577Z,6.53
2023-01-30T09:15:36.839Z,7.55
2023-01-30T09:18:04.975Z,7.13
2023-01-30T09:20:31.857Z,6.50
2023-01-30T09:22:58.753Z,6.65
2023-01-30T09:25:25.668Z,6.70
2023-01-30T09:27:52.483Z,6.07
2023-01-30T09:30:20.024Z,6.30
2023-01-30T09:32:47.679Z,6.60
2023-01-30T09:35:14.567Z,6.55
2023-01-30T09:37:51.964Z,6.97
2023-01-30T09:40:23.515Z,6.25
2023-01-30T09:43:15.119Z,5.85
2023-01-30T09:46:08.446Z,6.15
2023-01-30T09:48:44.979Z,7.05
2023-01-30T09:51:14.823Z,5.88
2023-01-30T09:54:18.011Z,6.22
2023-01-30T09:56:44.822Z,6.03
2023-01-30T09:59:22.237Z,5.88
2023-01-30T10:02:15.003Z,5.78
2023-01-30T10:05:00.669Z,6.53
2023-01-30T10:07:47.223Z,5.53
2023-01-30T10:10:43.427Z,5.80
2023-01-30T10:13:30.785Z,6.18
2023-01-30T10:16:30.405Z,6.28
2023-01-30T10:19:35.564Z,6.30
2023-01-30T10:22:16.666Z,6.65
2023-01-30T10:24:52.439Z,6.18
2023-01-30T10:27:21.111Z,6.10
2023-01-30T10:29:57.198Z,5.97
2023-01-30T10:32:28.936Z,6.65
2023-01-30T10:35:00.276Z,7.00
2023-01-30T10:37:35.819Z,6.55
2023-01-30T10:40:13.476Z,6.03
2023-01-30T10:42:46.703Z,6.63
2023-01-30T10:45:17.541Z,5.88
2023-01-30T10:48:08.536Z,6.90
2023-01-30T10:50:55.552Z,7.30
2023-01-30T10:53:43.078Z,6.95
2023-01-30T10:56:16.959Z,6.55
2023-01-30T10:58:54.095Z,6.43
2023-01-30T11:01:38.361Z,7.03
2023-01-30T11:04:22.353Z,7.13
2023-01-30T11:06:52.399Z,6.95
2023-01-30T11:09:20.434Z,7.45
2023-01-30T11:11:53.508Z,7.00
2023-01-30T11:14:21.216Z,6.75
2023-01-30T11:16:53.073Z,6.68
2023-01-30T11:19:42.123Z,7.32
2023-01-30T11:22:13.568Z,6.90
2023-01-30T11:24:43.359Z,6.65
2023-01-30T11:27:12.364Z,6.45
2023-01-30T11:29:39.888Z,7.10
2023-01-30T11:32:14.583Z,6.65
2023-01-30T11:34:43.726Z,7.13
2023-01-30T11:37:29.569Z,6.93
2023-01-30T11:39:56.550Z,6.85
2023-01-30T11:42:31.450Z,6.82
2023-01-30T11:45:17.327Z,5.95
2023-01-30T11:48:04.723Z,6.65
2023-01-30T11:50:46.538Z,6.53
2023-01-30T11:53:25.241Z,6.78
2023-01-30T11:56:03.783Z,7.03
2023-01-30T11:58:35.893Z,6.25
2023-01-30T12:01:04.152Z,6.80
2023-01-30T12:03:33.883Z,6.60
2023-01-30T12:06:00.739Z,6.10
2023-01-30T12:08:43.278Z,5.78
2023-01-30T12:11:24.934Z,5.40
2023-01-30T12:13:54.087Z,5.65
2023-01-30T12:17:09.287Z,4.75
2023-01-30T12:19:46.587Z,5.00
2023-01-30T12:22:20.690Z,5.05
2023-01-30T12:24:58.556Z,5.68
2023-01-30T12:27:43.199Z,5.20
2023-01-30T12:30:40.787Z,4.57
2023-01-30T12:33:12.913Z,4.63
2023-01-30T12:35:52.161Z,4.30
2023-01-30T12:38:47.244Z,4.40
2023-01-30T12:41:34.786Z,3.92
2023-01-30T12:44:19.274Z,4.40
2023-01-30T12:47:20.795Z,3.90
2023-01-30T12:50:11.212Z,3.92
2023-01-30T12:52:53.999Z,3.20
2023-01-30T12:55:41.600Z,3.42
2023-01-30T12:58:34.879Z,3.38
2023-01-30T13:01:32.590Z,3.47
2023-01-30T13:04:15.462Z,4.22
2023-01-30T13:06:57.828Z,2.97
2023-01-30T13:09:49.259Z,2.60
2023-01-30T13:12:21.860Z,3.15
2023-01-30T13:14:55.808Z,2.85
2023-01-30T13:17:48.730Z,2.83
2023-01-30T13:20:27.008Z,2.67
2023-01-30T13:23:10.972Z,2.65
2023-01-30T13:26:01.035Z,2.60
2023-01-30T13:28:42.535Z,2.92
2023-01-30T13:31:14.769Z,2.70
2023-01-30T13:33:44.797Z,2.93
2023-01-30T13:36:56.033Z,2.65
2023-01-30T13:39:46.211Z,2.97
2023-01-30T13:42:25.340Z,2.75
2023-01-30T13:44:53.634Z,2.70
2023-01-30T13:48:22.364Z,2.80
2023-01-30T13:51:19.614Z,2.75
2023-01-30T13:54:03.175Z,2.80
2023-01-30T13:59:30.808Z,3.10
2023-01-30T14:02:03.962Z,3.17
2023-01-30T14:04:50.317Z,3.17
2023-01-30T14:07:41.099Z,3.17
2023-01-30T14:10:10.681Z,2.88
2023-01-30T14:12:49.428Z,3.10
2023-01-30T14:15:16.394Z,3.00
2023-01-30T14:18:20.486Z,3.53
2023-01-30T14:20:50.324Z,3.75
2023-01-30T14:23:24.108Z,2.83
2023-01-30T14:25:52.889Z,3.00
2023-01-30T14:28:19.564Z,2.65
2023-01-30T14:30:52.170Z,2.75
2023-01-30T14:33:22.005Z,3.60
2023-01-30T14:35:51.727Z,3.38
2023-01-30T14:38:20.460Z,3.33
2023-01-30T14:40:59.155Z,3.28
2023-01-30T14:43:25.843Z,3.03
2023-01-30T14:45:56.898Z,3.58
2023-01-30T14:48:56.806Z,3.70
2023-01-30T14:51:39.813Z,3.30
2023-01-30T14:54:12.835Z,3.13
2023-01-30T14:56:46.066Z,3.30
2023-01-30T14:59:15.905Z,3.15
2023-01-30T15:02:01.514Z,3.22
2023-01-30T15:04:49.125Z,3.58
2023-01-30T15:07:28.237Z,3.38
2023-01-30T15:09:57.915Z,3.13
2023-01-30T15:12:41.546Z,3.50
2023-01-30T15:17:58.238Z,3.28
2023-01-30T15:20:53.422Z,2.83
2023-01-30T15:23:41.828Z,2.95
2023-01-30T15:26:30.781Z,3.33
2023-01-30T15:29:06.332Z,2.95
2023-01-30T15:31:33.805Z,3.30
2023-01-30T15:34:00.650Z,3.33
2023-01-30T15:36:33.216Z,3.22
2023-01-30T15:39:24.575Z,3.35
2023-01-30T15:41:52.934Z,3.33
2023-01-30T15:44:22.493Z,3.63
2023-01-30T15:47:11.346Z,3.35
2023-01-30T15:50:01.359Z,3.30
2023-01-30T15:52:44.318Z,3.40
2023-01-30T15:55:32.924Z,3.20
2023-01-30T15:58:04.644Z,3.08
2023-01-30T16:00:39.163Z,3.60
2023-01-30T16:03:11.278Z,3.00
2023-01-30T16:05:47.556Z,3.42
2023-01-30T16:08:23.228Z,3.67
2023-01-30T16:10:51.639Z,3.30
2023-01-30T16:13:23.771Z,4.00
2023-01-30T16:16:02.452Z,3.70
2023-01-30T16:18:35.736Z,3.38
2023-01-30T16:21:09.798Z,3.45
2023-01-30T16:23:41.615Z,3.55
2023-01-30T16:26:17.616Z,3.63
2023-01-30T16:28:45.708Z,3.60
2023-01-30T16:31:15.769Z,3.47
2023-01-30T16:33:52.571Z,3.90
2023-01-30T16:36:20.756Z,3.05
2023-01-30T16:38:50.142Z,3.58
2023-01-30T16:41:35.200Z,3.60
2023-01-30T16:44:22.150Z,3.00
2023-01-30T16:47:14.338Z,3.80
2023-01-30T16:49:48.512Z,3.85
2023-01-30T16:52:44.373Z,3.50
2023-01-30T16:55:23.633Z,3.30
2023-01-30T16:57:57.584Z,3.72
2023-01-30T17:00:28.411Z,3.67
2023-01-30T17:03:19.549Z,3.33
2023-01-30T17:05:49.451Z,2.78
2023-01-30T17:08:52.383Z,3.17
2023-01-30T17:11:40.104Z,3.55
2023-01-30T17:14:10.574Z,3.58
2023-01-30T17:16:39.282Z,3.65
2023-01-30T17:19:06.372Z,3.47
2023-01-30T17:21:47.778Z,3.40
2023-01-30T17:24:18.239Z,3.90
2023-01-30T17:26:49.218Z,3.63
2023-01-30T17:29:28.920Z,3.88
2023-01-30T17:32:10.404Z,3.60
2023-01-30T17:34:40.845Z,3.50
2023-01-30T17:37:15.192Z,3.72
2023-01-30T17:39:41.980Z,3.65
2023-01-30T17:42:13.184Z,3.78
2023-01-30T17:44:40.605Z,4.05
2023-01-30T17:47:10.944Z,3.80
2023-01-30T17:49:37.833Z,4.68
2023-01-30T17:52:04.908Z,5.93
2023-01-30T17:54:31.723Z,3.80
2023-01-30T17:57:04.608Z,4.28
2023-01-30T17:59:32.579Z,4.70
2023-01-30T18:01:59.858Z,4.05
2023-01-30T18:04:26.789Z,4.13
2023-01-30T18:07:06.279Z,3.78
2023-01-30T18:09:33.072Z,4.00
2023-01-30T18:11:59.805Z,4.55
2023-01-30T18:14:26.598Z,4.38
2023-01-30T18:16:59.706Z,4.85
2023-01-30T18:19:28.150Z,3.78
2023-01-30T18:21:54.915Z,3.88
2023-01-30T18:24:21.667Z,4.45
2023-01-30T18:26:48.544Z,4.22
2023-01-30T18:29:15.444Z,4.10
2023-01-30T18:31:42.355Z,4.40
2023-01-30T18:34:11.056Z,4.22
2023-01-30T18:36:38.497Z,4.50
2023-01-30T18:39:05.917Z,4.35
2023-01-30T18:41:32.874Z,4.13
2023-01-30T18:44:02.255Z,4.40
2023-01-30T18:46:29.837Z,4.45
2023-01-30T18:48:57.646Z,4.00
2023-01-30T18:51:31.299Z,4.20
2023-01-30T18:53:59.496Z,4.70
2023-01-30T18:56:29.412Z,4.10
2023-01-30T18:58:56.886Z,4.55
2023-01-30T19:01:26.552Z,3.90
2023-01-30T19:03:58.180Z,3.88
2023-01-30T19:06:26.031Z,4.45
2023-01-30T19:08:52.950Z,3.83
2023-01-30T19:11:40.135Z,4.75
2023-01-30T19:14:08.190Z,4.57
2023-01-30T19:16:37.271Z,4.75
2023-01-30T19:19:04.906Z,4.13
2023-01-30T19:21:31.821Z,5.00
2023-01-30T19:23:59.567Z,3.53
2023-01-30T19:26:28.777Z,4.40
2023-01-30T19:28:55.606Z,3.83
2023-01-30T19:31:22.724Z,3.95
2023-01-30T19:33:58.408Z,3.67
2023-01-30T19:36:26.693Z,3.72
2023-01-30T19:38:53.900Z,3.25
2023-01-30T19:41:26.048Z,3.65
2023-01-30T19:43:53.816Z,3.85
2023-01-30T19:46:21.324Z,3.97
2023-01-30T19:48:49.042Z,3.85
2023-01-30T19:51:20.412Z,3.60
2023-01-30T19:53:52.634Z,4.25
2023-01-30T19:56:22.158Z,3.42
2023-01-30T19:58:52.309Z,4.00
2023-01-30T20:01:21.378Z,4.07
2023-01-30T20:03:48.590Z,3.92
2023-01-30T20:06:17.736Z,3.83
2023-01-30T20:08:46.079Z,3.92
2023-01-30T20:11:15.318Z,4.13
2023-01-30T20:13:43.184Z,3.67
2023-01-30T20:16:12.484Z,3.80
2023-01-30T20:18:40.201Z,4.43
2023-01-30T20:21:17.286Z,4.10
2023-01-30T20:23:45.307Z,4.07
2023-01-30T20:26:15.094Z,4.15
2023-01-30T20:28:42.266Z,4.63
2023-01-30T20:31:10.368Z,4.18
2023-01-30T20:33:37.327Z,4.38
2023-01-30T20:36:06.134Z,4.57
2023-01-30T20:38:34.281Z,4.40
2023-01-30T20:41:06.119Z,3.60
2023-01-30T20:43:33.924Z,4.80
2023-01-30T20:46:29.764Z,3.50
2023-01-30T20:48:58.566Z,4.18
2023-01-30T20:51:27.543Z,3.83
2023-01-30T20:54:00.134Z,3.95
2023-01-30T20:56:31.547Z,3.80
2023-01-30T20:58:58.444Z,4.20
2023-01-30T21:01:25.726Z,3.50
2023-01-30T21:03:53.736Z,4.25
2023-01-30T21:06:41.221Z,3.67
2023-01-30T21:09:17.537Z,3.90
2023-01-30T21:11:44.988Z,4.15
2023-01-30T21:14:12.043Z,3.80
2023-01-30T21:16:39.511Z,4.22
2023-01-30T21:19:10.089Z,3.42
2023-01-30T21:21:44.415Z,3.63
2023-01-30T21:24:14.567Z,3.13
2023-01-30T21:26:45.940Z,3.65
2023-01-30T21:29:15.695Z,4.00
2023-01-30T21:31:43.619Z,3.75
2023-01-30T21:34:11.095Z,3.95
2023-01-30T21:36:38.003Z,3.85
2023-01-30T21:39:23.624Z,5.10
2023-01-30T21:42:09.376Z,3.63
2023-01-30T21:44:37.856Z,4.93
2023-01-30T21:47:06.679Z,4.45
2023-01-30T21:49:34.202Z,4.88
2023-01-30T21:52:00.960Z,4.20
2023-01-30T21:54:28.035Z,4.50
2023-01-30T21:56:55.681Z,4.45
2023-01-30T21:59:22.457Z,4.60
2023-01-30T22:01:49.635Z,4.78
2023-01-30T22:04:16.798Z,4.55
2023-01-30T22:06:43.955Z,4.78
2023-01-30T22:09:16.201Z,4.45
2023-01-30T22:11:43.793Z,4.88
2023-01-30T22:14:13.274Z,5.00
2023-01-30T22:16:40.825Z,4.75
2023-01-30T22:19:08.212Z,4.90
2023-01-30T22:21:38.670Z,5.32
2023-01-30T22:24:08.301Z,4.40
2023-01-30T22:26:35.468Z,5.25
2023-01-30T22:29:04.339Z,4.70
2023-01-30T22:31:36.386Z,4.88
2023-01-30T22:34:04.497Z,5.10
2023-01-30T22:36:33.672Z,5.68
2023-01-30T22:39:01.136Z,5.32
2023-01-30T22:41:30.683Z,4.72
2023-01-30T22:43:59.535Z,5.03
2023-01-30T22:46:31.277Z,5.00
2023-01-30T22:48:59.392Z,4.75
2023-01-30T22:51:28.764Z,4.43
2023-01-30T22:53:58.724Z,4.75
2023-01-30T22:56:28.484Z,4.65
2023-01-30T22:58:55.730Z,4.72
2023-01-30T23:01:25.498Z,5.07
2023-01-30T23:03:58.100Z,5.07
2023-01-30T23:06:25.738Z,4.40
2023-01-30T23:08:54.123Z,4.45
2023-01-30T23:11:21.019Z,4.90
2023-01-30T23:13:50.121Z,4.90
2023-01-30T23:16:19.753Z,4.93
2023-01-30T23:18:55.532Z,5.35
2023-01-30T23:21:28.417Z,5.00
2023-01-30T23:23:57.167Z,4.40
2023-01-30T23:26:25.862Z,4.32
2023-01-30T23:28:52.952Z,4.43
2023-01-30T23:31:22.377Z,4.57
2023-01-30T23:33:54.337Z,4.95
2023-01-30T23:36:22.164Z,4.57
2023-01-30T23:38:50.673Z,4.30
2023-01-30T23:41:20.549Z,4.40
2023-01-30T23:43:48.153Z,4.93
2023-01-30T23:46:20.016Z,5.03
2023-01-30T23:48:49.616Z,4.32
2023-01-30T23:51:17.957Z,4.47
2023-01-30T23:53:45.307Z,4.30
2023-01-30T23:56:12.675Z,4.47
2023-01-30T23:58:40.191Z,4.85
